sensor_id;sensor_type;location;lat;lon;timestamp;temperature;humidity
26053;DHT22;13826;51.186;4.450;2023-06-14T00:00:11;21.80;59.70
26053;DHT22;13826;51.186;4.450;2023-06-14T00:02:38;21.70;84.60
26053;DHT22;13826;51.186;4.450;2023-06-14T00:05:07;21.70;94.30
26053;DHT22;13826;51.186;4.450;2023-06-14T00:07:33;21.70;96.10
26053;DHT22;13826;51.186;4.450;2023-06-14T00:09:59;21.80;95.10
26053;DHT22;13826;51.186;4.450;2023-06-14T00:12:24;21.80;86.60
26053;DHT22;13826;51.186;4.450;2023-06-14T00:14:50;21.70;95.20
26053;DHT22;13826;51.186;4.450;2023-06-14T00:17:16;21.60;99.90
26053;DHT22;13826;51.186;4.450;2023-06-14T00:19:41;21.50;99.90
26053;DHT22;13826;51.186;4.450;2023-06-14T00:22:07;21.40;99.90
26053;DHT22;13826;51.186;4.450;2023-06-14T00:24:33;21.30;99.90
26053;DHT22;13826;51.186;4.450;2023-06-14T00:26:58;21.20;99.90
26053;DHT22;13826;51.186;4.450;2023-06-14T00:29:24;21.40;99.90
26053;DHT22;13826;51.186;4.450;2023-06-14T00:31:49;21.40;99.90
26053;DHT22;13826;51.186;4.450;2023-06-14T00:34:15;21.40;99.90
26053;DHT22;13826;51.186;4.450;2023-06-14T00:36:41;21.30;99.90
26053;DHT22;13826;51.186;4.450;2023-06-14T00:39:06;21.30;99.90
26053;DHT22;13826;51.186;4.450;2023-06-14T00:41:32;21.30;99.90
26053;DHT22;13826;51.186;4.450;2023-06-14T00:43:57;21.20;99.90
26053;DHT22;13826;51.186;4.450;2023-06-14T00:46:25;21.20;99.90
26053;DHT22;13826;51.186;4.450;2023-06-14T00:48:50;21.30;99.90
26053;DHT22;13826;51.186;4.450;2023-06-14T00:51:16;21.30;99.90
26053;DHT22;13826;51.186;4.450;2023-06-14T00:53:42;21.30;93.00
26053;DHT22;13826;51.186;4.450;2023-06-14T00:56:12;21.30;89.80
26053;DHT22;13826;51.186;4.450;2023-06-14T00:58:38;21.20;93.10
26053;DHT22;13826;51.186;4.450;2023-06-14T01:01:04;21.00;91.60
26053;DHT22;13826;51.186;4.450;2023-06-14T01:03:29;20.90;98.70
26053;DHT22;13826;51.186;4.450;2023-06-14T01:06:11;20.80;99.90
26053;DHT22;13826;51.186;4.450;2023-06-14T01:09:27;20.80;99.90
26053;DHT22;13826;51.186;4.450;2023-06-14T01:11:31;20.70;97.30
26053;DHT22;13826;51.186;4.450;2023-06-14T01:13:58;20.70;99.90
26053;DHT22;13826;51.186;4.450;2023-06-14T01:16:25;20.50;99.90
26053;DHT22;13826;51.186;4.450;2023-06-14T01:18:51;20.50;99.90
26053;DHT22;13826;51.186;4.450;2023-06-14T01:21:24;20.60;99.90
26053;DHT22;13826;51.186;4.450;2023-06-14T01:23:50;20.60;99.20
26053;DHT22;13826;51.186;4.450;2023-06-14T01:26:19;20.60;98.20
26053;DHT22;13826;51.186;4.450;2023-06-14T01:28:44;20.50;95.90
26053;DHT22;13826;51.186;4.450;2023-06-14T01:31:16;20.40;99.90
26053;DHT22;13826;51.186;4.450;2023-06-14T01:33:42;20.40;96.70
26053;DHT22;13826;51.186;4.450;2023-06-14T01:36:08;20.40;95.70
26053;DHT22;13826;51.186;4.450;2023-06-14T01:38:34;20.40;92.30
26053;DHT22;13826;51.186;4.450;2023-06-14T01:41:01;20.20;93.90
26053;DHT22;13826;51.186;4.450;2023-06-14T01:43:27;20.20;98.70
26053;DHT22;13826;51.186;4.450;2023-06-14T01:45:55;20.30;99.90
26053;DHT22;13826;51.186;4.450;2023-06-14T01:48:22;20.50;80.50
26053;DHT22;13826;51.186;4.450;2023-06-14T01:50:48;20.60;63.60
26053;DHT22;13826;51.186;4.450;2023-06-14T01:53:15;20.60;56.50
26053;DHT22;13826;51.186;4.450;2023-06-14T01:55:41;20.60;48.70
26053;DHT22;13826;51.186;4.450;2023-06-14T01:58:08;20.20;59.40
26053;DHT22;13826;51.186;4.450;2023-06-14T02:00:34;20.20;61.90
26053;DHT22;13826;51.186;4.450;2023-06-14T02:03:00;20.20;51.10
26053;DHT22;13826;51.186;4.450;2023-06-14T02:05:26;20.00;59.60
26053;DHT22;13826;51.186;4.450;2023-06-14T02:07:52;20.10;56.10
26053;DHT22;13826;51.186;4.450;2023-06-14T02:10:18;20.00;58.50
26053;DHT22;13826;51.186;4.450;2023-06-14T02:12:44;20.00;53.90
26053;DHT22;13826;51.186;4.450;2023-06-14T02:15:09;20.00;56.40
26053;DHT22;13826;51.186;4.450;2023-06-14T02:17:47;19.80;57.80
26053;DHT22;13826;51.186;4.450;2023-06-14T02:20:14;19.90;65.10
26053;DHT22;13826;51.186;4.450;2023-06-14T02:22:40;19.90;59.10
26053;DHT22;13826;51.186;4.450;2023-06-14T02:25:06;20.10;46.10
26053;DHT22;13826;51.186;4.450;2023-06-14T02:27:32;20.00;47.80
26053;DHT22;13826;51.186;4.450;2023-06-14T02:29:59;20.10;45.70
26053;DHT22;13826;51.186;4.450;2023-06-14T02:32:24;20.00;44.60
26053;DHT22;13826;51.186;4.450;2023-06-14T02:34:51;19.80;67.50
26053;DHT22;13826;51.186;4.450;2023-06-14T02:37:18;19.70;48.50
26053;DHT22;13826;51.186;4.450;2023-06-14T02:39:44;19.70;56.30
26053;DHT22;13826;51.186;4.450;2023-06-14T02:42:10;19.80;42.00
26053;DHT22;13826;51.186;4.450;2023-06-14T02:44:35;19.80;41.90
26053;DHT22;13826;51.186;4.450;2023-06-14T02:47:01;19.70;45.20
26053;DHT22;13826;51.186;4.450;2023-06-14T02:49:27;19.70;49.00
26053;DHT22;13826;51.186;4.450;2023-06-14T02:51:52;19.70;46.10
26053;DHT22;13826;51.186;4.450;2023-06-14T02:54:18;19.60;48.30
26053;DHT22;13826;51.186;4.450;2023-06-14T02:56:43;19.50;45.90
26053;DHT22;13826;51.186;4.450;2023-06-14T02:59:09;19.60;47.80
26053;DHT22;13826;51.186;4.450;2023-06-14T03:01:34;19.60;52.20
26053;DHT22;13826;51.186;4.450;2023-06-14T03:04:03;19.50;57.20
26053;DHT22;13826;51.186;4.450;2023-06-14T03:06:29;19.60;63.00
26053;DHT22;13826;51.186;4.450;2023-06-14T03:08:59;19.60;63.20
26053;DHT22;13826;51.186;4.450;2023-06-14T03:11:26;19.50;58.00
26053;DHT22;13826;51.186;4.450;2023-06-14T03:13:52;19.40;59.60
26053;DHT22;13826;51.186;4.450;2023-06-14T03:16:18;19.40;60.60
26053;DHT22;13826;51.186;4.450;2023-06-14T03:18:48;19.40;53.80
26053;DHT22;13826;51.186;4.450;2023-06-14T03:21:13;19.50;53.50
26053;DHT22;13826;51.186;4.450;2023-06-14T03:23:41;19.40;50.30
26053;DHT22;13826;51.186;4.450;2023-06-14T03:26:07;19.40;55.00
26053;DHT22;13826;51.186;4.450;2023-06-14T03:28:33;19.50;47.80
26053;DHT22;13826;51.186;4.450;2023-06-14T03:30:58;19.30;43.10
26053;DHT22;13826;51.186;4.450;2023-06-14T03:33:25;19.40;49.70
26053;DHT22;13826;51.186;4.450;2023-06-14T03:35:51;19.30;48.50
26053;DHT22;13826;51.186;4.450;2023-06-14T03:38:17;19.20;55.40
26053;DHT22;13826;51.186;4.450;2023-06-14T03:40:42;19.20;47.50
26053;DHT22;13826;51.186;4.450;2023-06-14T03:43:08;19.30;49.50
26053;DHT22;13826;51.186;4.450;2023-06-14T03:45:33;19.30;44.10
26053;DHT22;13826;51.186;4.450;2023-06-14T03:47:59;19.30;42.80
26053;DHT22;13826;51.186;4.450;2023-06-14T03:50:26;19.10;46.20
26053;DHT22;13826;51.186;4.450;2023-06-14T03:52:52;19.00;48.30
26053;DHT22;13826;51.186;4.450;2023-06-14T03:55:17;19.00;48.50
26053;DHT22;13826;51.186;4.450;2023-06-14T03:57:43;19.20;53.40
26053;DHT22;13826;51.186;4.450;2023-06-14T04:00:09;19.10;48.40
26053;DHT22;13826;51.186;4.450;2023-06-14T04:02:35;19.10;52.10
26053;DHT22;13826;51.186;4.450;2023-06-14T04:05:02;19.20;45.40
26053;DHT22;13826;51.186;4.450;2023-06-14T04:07:28;19.20;54.30
26053;DHT22;13826;51.186;4.450;2023-06-14T04:09:54;19.30;44.10
26053;DHT22;13826;51.186;4.450;2023-06-14T04:12:19;19.30;43.20
26053;DHT22;13826;51.186;4.450;2023-06-14T04:14:46;19.30;43.80
26053;DHT22;13826;51.186;4.450;2023-06-14T04:17:11;19.40;39.50
26053;DHT22;13826;51.186;4.450;2023-06-14T04:19:37;20.00;37.30
26053;DHT22;13826;51.186;4.450;2023-06-14T04:22:03;20.30;27.70
26053;DHT22;13826;51.186;4.450;2023-06-14T04:24:28;20.50;20.50
26053;DHT22;13826;51.186;4.450;2023-06-14T04:27:00;20.40;17.70
26053;DHT22;13826;51.186;4.450;2023-06-14T04:29:29;20.10;25.10
26053;DHT22;13826;51.186;4.450;2023-06-14T04:31:55;20.10;17.70
26053;DHT22;13826;51.186;4.450;2023-06-14T04:34:27;19.90;23.00
26053;DHT22;13826;51.186;4.450;2023-06-14T04:36:55;19.80;28.60
26053;DHT22;13826;51.186;4.450;2023-06-14T04:39:21;20.20;24.40
26053;DHT22;13826;51.186;4.450;2023-06-14T04:41:47;20.10;25.70
26053;DHT22;13826;51.186;4.450;2023-06-14T04:44:13;20.30;30.00
26053;DHT22;13826;51.186;4.450;2023-06-14T04:46:39;20.90;15.50
26053;DHT22;13826;51.186;4.450;2023-06-14T04:49:14;21.90;10.30
26053;DHT22;13826;51.186;4.450;2023-06-14T04:51:41;23.00;1.70
26053;DHT22;13826;51.186;4.450;2023-06-14T04:54:08;24.00;1.00
26053;DHT22;13826;51.186;4.450;2023-06-14T04:56:35;24.60;1.00
26053;DHT22;13826;51.186;4.450;2023-06-14T04:59:02;25.30;1.00
26053;DHT22;13826;51.186;4.450;2023-06-14T05:01:30;24.90;1.00
26053;DHT22;13826;51.186;4.450;2023-06-14T05:03:57;24.80;1.00
26053;DHT22;13826;51.186;4.450;2023-06-14T05:06:22;25.10;1.00
26053;DHT22;13826;51.186;4.450;2023-06-14T05:08:48;25.70;1.00
26053;DHT22;13826;51.186;4.450;2023-06-14T05:11:14;26.20;1.00
26053;DHT22;13826;51.186;4.450;2023-06-14T05:13:40;27.00;1.00
26053;DHT22;13826;51.186;4.450;2023-06-14T05:16:06;27.30;1.00
26053;DHT22;13826;51.186;4.450;2023-06-14T05:18:31;27.30;1.00
26053;DHT22;13826;51.186;4.450;2023-06-14T05:20:59;26.90;1.00
26053;DHT22;13826;51.186;4.450;2023-06-14T05:23:25;26.80;1.00
26053;DHT22;13826;51.186;4.450;2023-06-14T05:25:50;26.70;1.00
26053;DHT22;13826;51.186;4.450;2023-06-14T05:28:16;27.80;1.00
26053;DHT22;13826;51.186;4.450;2023-06-14T05:30:41;28.20;1.00
26053;DHT22;13826;51.186;4.450;2023-06-14T05:33:07;28.80;1.00
26053;DHT22;13826;51.186;4.450;2023-06-14T05:35:33;29.20;1.00
26053;DHT22;13826;51.186;4.450;2023-06-14T05:37:58;29.00;1.00
26053;DHT22;13826;51.186;4.450;2023-06-14T05:40:24;28.60;1.00
26053;DHT22;13826;51.186;4.450;2023-06-14T05:42:49;28.00;1.00
26053;DHT22;13826;51.186;4.450;2023-06-14T05:45:15;28.40;1.00
26053;DHT22;13826;51.186;4.450;2023-06-14T05:47:41;29.10;1.00
26053;DHT22;13826;51.186;4.450;2023-06-14T05:50:07;29.90;1.00
26053;DHT22;13826;51.186;4.450;2023-06-14T05:52:33;29.50;1.00
26053;DHT22;13826;51.186;4.450;2023-06-14T05:54:59;29.30;1.00
26053;DHT22;13826;51.186;4.450;2023-06-14T05:57:25;28.10;1.00
26053;DHT22;13826;51.186;4.450;2023-06-14T05:59:50;28.00;1.00
26053;DHT22;13826;51.186;4.450;2023-06-14T06:02:16;28.30;1.00
26053;DHT22;13826;51.186;4.450;2023-06-14T06:04:42;28.60;1.00
26053;DHT22;13826;51.186;4.450;2023-06-14T06:07:08;29.50;1.00
26053;DHT22;13826;51.186;4.450;2023-06-14T06:09:39;29.10;1.00
26053;DHT22;13826;51.186;4.450;2023-06-14T06:12:06;29.10;1.00
26053;DHT22;13826;51.186;4.450;2023-06-14T06:14:32;29.90;1.00
26053;DHT22;13826;51.186;4.450;2023-06-14T06:16:58;30.10;1.00
26053;DHT22;13826;51.186;4.450;2023-06-14T06:19:24;30.40;1.00
26053;DHT22;13826;51.186;4.450;2023-06-14T06:21:49;30.60;1.00
26053;DHT22;13826;51.186;4.450;2023-06-14T06:24:15;31.40;1.00
26053;DHT22;13826;51.186;4.450;2023-06-14T06:26:41;31.30;1.00
26053;DHT22;13826;51.186;4.450;2023-06-14T06:29:06;31.30;1.00
26053;DHT22;13826;51.186;4.450;2023-06-14T06:31:32;31.90;1.00
26053;DHT22;13826;51.186;4.450;2023-06-14T06:33:58;32.90;1.00
26053;DHT22;13826;51.186;4.450;2023-06-14T06:36:24;32.60;1.00
26053;DHT22;13826;51.186;4.450;2023-06-14T06:38:49;32.80;1.00
26053;DHT22;13826;51.186;4.450;2023-06-14T06:41:15;32.60;1.00
26053;DHT22;13826;51.186;4.450;2023-06-14T06:43:41;32.70;1.00
26053;DHT22;13826;51.186;4.450;2023-06-14T06:46:06;34.00;1.00
26053;DHT22;13826;51.186;4.450;2023-06-14T06:48:32;34.10;1.00
26053;DHT22;13826;51.186;4.450;2023-06-14T06:50:57;33.60;1.00
26053;DHT22;13826;51.186;4.450;2023-06-14T06:53:23;33.30;1.00
26053;DHT22;13826;51.186;4.450;2023-06-14T06:55:48;34.60;1.00
26053;DHT22;13826;51.186;4.450;2023-06-14T06:58:14;35.00;1.00
26053;DHT22;13826;51.186;4.450;2023-06-14T07:00:40;36.50;1.00
26053;DHT22;13826;51.186;4.450;2023-06-14T07:03:06;35.80;1.00
26053;DHT22;13826;51.186;4.450;2023-06-14T07:05:31;36.00;1.00
26053;DHT22;13826;51.186;4.450;2023-06-14T07:07:57;35.70;1.00
26053;DHT22;13826;51.186;4.450;2023-06-14T07:10:23;36.50;1.00
26053;DHT22;13826;51.186;4.450;2023-06-14T07:12:50;36.70;1.00
26053;DHT22;13826;51.186;4.450;2023-06-14T07:15:15;36.80;1.00
26053;DHT22;13826;51.186;4.450;2023-06-14T07:17:41;36.80;1.00
26053;DHT22;13826;51.186;4.450;2023-06-14T07:20:08;35.40;1.00
26053;DHT22;13826;51.186;4.450;2023-06-14T07:22:34;35.40;1.00
26053;DHT22;13826;51.186;4.450;2023-06-14T07:24:59;37.20;1.00
26053;DHT22;13826;51.186;4.450;2023-06-14T07:27:25;37.10;1.00
26053;DHT22;13826;51.186;4.450;2023-06-14T07:29:51;38.20;1.00
26053;DHT22;13826;51.186;4.450;2023-06-14T07:32:16;38.70;1.00
26053;DHT22;13826;51.186;4.450;2023-06-14T07:34:42;38.20;1.00
26053;DHT22;13826;51.186;4.450;2023-06-14T07:37:07;37.30;1.00
26053;DHT22;13826;51.186;4.450;2023-06-14T07:39:33;37.50;1.00
26053;DHT22;13826;51.186;4.450;2023-06-14T07:41:59;37.90;1.00
26053;DHT22;13826;51.186;4.450;2023-06-14T07:44:24;37.50;1.00
26053;DHT22;13826;51.186;4.450;2023-06-14T07:46:50;38.60;1.00
26053;DHT22;13826;51.186;4.450;2023-06-14T07:49:16;38.90;1.00
26053;DHT22;13826;51.186;4.450;2023-06-14T07:51:41;39.50;1.00
26053;DHT22;13826;51.186;4.450;2023-06-14T07:54:08;39.50;1.00
26053;DHT22;13826;51.186;4.450;2023-06-14T07:56:34;39.40;1.00
26053;DHT22;13826;51.186;4.450;2023-06-14T07:59:01;39.50;1.00
26053;DHT22;13826;51.186;4.450;2023-06-14T08:01:26;39.70;1.00
26053;DHT22;13826;51.186;4.450;2023-06-14T08:03:53;39.70;1.00
26053;DHT22;13826;51.186;4.450;2023-06-14T08:06:18;40.50;1.00
26053;DHT22;13826;51.186;4.450;2023-06-14T08:08:44;39.80;1.00
26053;DHT22;13826;51.186;4.450;2023-06-14T08:11:09;38.90;1.00
26053;DHT22;13826;51.186;4.450;2023-06-14T08:13:35;39.00;1.00
26053;DHT22;13826;51.186;4.450;2023-06-14T08:16:00;40.40;1.00
26053;DHT22;13826;51.186;4.450;2023-06-14T08:18:32;40.40;1.00
26053;DHT22;13826;51.186;4.450;2023-06-14T08:20:57;39.70;1.00
26053;DHT22;13826;51.186;4.450;2023-06-14T08:23:23;38.90;1.00
26053;DHT22;13826;51.186;4.450;2023-06-14T08:25:49;38.70;1.00
26053;DHT22;13826;51.186;4.450;2023-06-14T08:28:14;39.30;1.00
26053;DHT22;13826;51.186;4.450;2023-06-14T08:30:41;38.60;1.00
26053;DHT22;13826;51.186;4.450;2023-06-14T08:33:07;39.90;1.00
26053;DHT22;13826;51.186;4.450;2023-06-14T08:35:33;38.10;1.00
26053;DHT22;13826;51.186;4.450;2023-06-14T08:38:02;38.40;1.00
26053;DHT22;13826;51.186;4.450;2023-06-14T08:40:29;39.60;1.00
26053;DHT22;13826;51.186;4.450;2023-06-14T08:42:55;39.90;1.00
26053;DHT22;13826;51.186;4.450;2023-06-14T08:45:21;41.00;1.00
26053;DHT22;13826;51.186;4.450;2023-06-14T08:47:47;40.10;1.00
26053;DHT22;13826;51.186;4.450;2023-06-14T08:50:24;39.40;1.00
26053;DHT22;13826;51.186;4.450;2023-06-14T08:52:53;39.70;1.00
26053;DHT22;13826;51.186;4.450;2023-06-14T08:55:19;38.40;1.00
26053;DHT22;13826;51.186;4.450;2023-06-14T08:57:51;39.20;1.00
26053;DHT22;13826;51.186;4.450;2023-06-14T09:00:16;39.70;1.00
26053;DHT22;13826;51.186;4.450;2023-06-14T09:02:42;40.50;1.00
26053;DHT22;13826;51.186;4.450;2023-06-14T09:05:12;39.30;1.00
26053;DHT22;13826;51.186;4.450;2023-06-14T09:07:41;39.20;1.00
26053;DHT22;13826;51.186;4.450;2023-06-14T09:10:14;39.60;1.00
26053;DHT22;13826;51.186;4.450;2023-06-14T09:12:40;38.70;1.00
26053;DHT22;13826;51.186;4.450;2023-06-14T09:15:06;39.40;1.00
26053;DHT22;13826;51.186;4.450;2023-06-14T09:17:34;39.80;1.00
26053;DHT22;13826;51.186;4.450;2023-06-14T09:20:00;39.80;1.00
26053;DHT22;13826;51.186;4.450;2023-06-14T09:22:29;39.40;1.00
26053;DHT22;13826;51.186;4.450;2023-06-14T09:24:54;40.40;1.00
26053;DHT22;13826;51.186;4.450;2023-06-14T09:27:20;41.10;1.00
26053;DHT22;13826;51.186;4.450;2023-06-14T09:29:46;40.80;1.00
26053;DHT22;13826;51.186;4.450;2023-06-14T09:32:11;41.30;1.00
26053;DHT22;13826;51.186;4.450;2023-06-14T09:34:37;40.80;1.00
26053;DHT22;13826;51.186;4.450;2023-06-14T09:37:02;41.00;1.00
26053;DHT22;13826;51.186;4.450;2023-06-14T09:39:28;39.10;1.00
26053;DHT22;13826;51.186;4.450;2023-06-14T09:41:53;39.70;1.00
26053;DHT22;13826;51.186;4.450;2023-06-14T09:44:19;40.30;1.00
26053;DHT22;13826;51.186;4.450;2023-06-14T09:46:45;39.30;1.00
26053;DHT22;13826;51.186;4.450;2023-06-14T09:49:11;39.60;1.00
26053;DHT22;13826;51.186;4.450;2023-06-14T09:51:42;40.30;1.00
26053;DHT22;13826;51.186;4.450;2023-06-14T09:54:13;39.60;1.00
26053;DHT22;13826;51.186;4.450;2023-06-14T09:56:44;39.00;1.00
26053;DHT22;13826;51.186;4.450;2023-06-14T09:59:10;37.90;1.00
26053;DHT22;13826;51.186;4.450;2023-06-14T10:01:46;37.80;1.00
26053;DHT22;13826;51.186;4.450;2023-06-14T10:04:13;37.80;1.00
26053;DHT22;13826;51.186;4.450;2023-06-14T10:06:43;37.50;1.00
26053;DHT22;13826;51.186;4.450;2023-06-14T10:09:11;36.00;1.00
26053;DHT22;13826;51.186;4.450;2023-06-14T10:11:37;36.30;1.00
26053;DHT22;13826;51.186;4.450;2023-06-14T10:14:08;37.60;1.00
26053;DHT22;13826;51.186;4.450;2023-06-14T10:19:11;37.80;1.00
26053;DHT22;13826;51.186;4.450;2023-06-14T10:24:12;37.90;1.00
26053;DHT22;13826;51.186;4.450;2023-06-14T10:26:51;38.40;1.00
26053;DHT22;13826;51.186;4.450;2023-06-14T10:29:17;38.50;1.00
26053;DHT22;13826;51.186;4.450;2023-06-14T10:31:55;39.20;1.00
26053;DHT22;13826;51.186;4.450;2023-06-14T10:34:22;39.10;1.00
26053;DHT22;13826;51.186;4.450;2023-06-14T10:37:03;38.40;1.00
26053;DHT22;13826;51.186;4.450;2023-06-14T10:39:29;37.40;1.00
26053;DHT22;13826;51.186;4.450;2023-06-14T10:41:55;36.80;1.00
26053;DHT22;13826;51.186;4.450;2023-06-14T10:46:55;34.50;1.00
26053;DHT22;13826;51.186;4.450;2023-06-14T10:49:36;34.10;1.00
26053;DHT22;13826;51.186;4.450;2023-06-14T10:52:07;33.80;1.00
26053;DHT22;13826;51.186;4.450;2023-06-14T10:54:37;34.00;1.00
26053;DHT22;13826;51.186;4.450;2023-06-14T10:57:03;34.90;1.00
26053;DHT22;13826;51.186;4.450;2023-06-14T10:59:32;36.00;1.00
26053;DHT22;13826;51.186;4.450;2023-06-14T11:04:30;35.30;1.00
26053;DHT22;13826;51.186;4.450;2023-06-14T11:07:43;35.80;1.00
26053;DHT22;13826;51.186;4.450;2023-06-14T11:12:14;36.60;1.00
26053;DHT22;13826;51.186;4.450;2023-06-14T11:14:40;36.10;1.00
26053;DHT22;13826;51.186;4.450;2023-06-14T11:17:06;34.90;1.00
26053;DHT22;13826;51.186;4.450;2023-06-14T11:19:32;34.10;1.00
26053;DHT22;13826;51.186;4.450;2023-06-14T11:21:58;34.20;1.00
26053;DHT22;13826;51.186;4.450;2023-06-14T11:24:24;34.80;1.00
26053;DHT22;13826;51.186;4.450;2023-06-14T11:26:50;35.60;1.00
26053;DHT22;13826;51.186;4.450;2023-06-14T11:29:16;35.20;1.00
26053;DHT22;13826;51.186;4.450;2023-06-14T11:31:45;35.50;1.00
26053;DHT22;13826;51.186;4.450;2023-06-14T11:34:11;35.20;1.00
26053;DHT22;13826;51.186;4.450;2023-06-14T11:36:38;35.50;1.00
26053;DHT22;13826;51.186;4.450;2023-06-14T11:39:04;36.00;1.00
26053;DHT22;13826;51.186;4.450;2023-06-14T11:41:43;34.90;1.00
26053;DHT22;13826;51.186;4.450;2023-06-14T11:44:09;34.40;1.00
26053;DHT22;13826;51.186;4.450;2023-06-14T11:46:35;33.90;1.00
26053;DHT22;13826;51.186;4.450;2023-06-14T11:49:01;33.60;1.00
26053;DHT22;13826;51.186;4.450;2023-06-14T11:51:32;33.40;1.00
26053;DHT22;13826;51.186;4.450;2023-06-14T11:53:58;33.40;1.00
26053;DHT22;13826;51.186;4.450;2023-06-14T11:56:24;32.80;1.00
26053;DHT22;13826;51.186;4.450;2023-06-14T11:58:52;32.30;1.00
26053;DHT22;13826;51.186;4.450;2023-06-14T12:01:19;32.20;1.00
26053;DHT22;13826;51.186;4.450;2023-06-14T12:03:48;31.70;1.00
26053;DHT22;13826;51.186;4.450;2023-06-14T12:06:14;31.00;1.00
26053;DHT22;13826;51.186;4.450;2023-06-14T12:08:40;30.70;1.00
26053;DHT22;13826;51.186;4.450;2023-06-14T12:11:11;30.80;1.00
26053;DHT22;13826;51.186;4.450;2023-06-14T12:13:43;30.80;1.00
26053;DHT22;13826;51.186;4.450;2023-06-14T12:16:09;30.40;1.00
26053;DHT22;13826;51.186;4.450;2023-06-14T12:18:36;30.50;1.00
26053;DHT22;13826;51.186;4.450;2023-06-14T12:21:08;30.50;1.00
26053;DHT22;13826;51.186;4.450;2023-06-14T12:23:43;30.60;1.00
26053;DHT22;13826;51.186;4.450;2023-06-14T12:26:09;30.70;1.00
26053;DHT22;13826;51.186;4.450;2023-06-14T12:28:35;30.70;1.00
26053;DHT22;13826;51.186;4.450;2023-06-14T12:31:00;31.10;1.00
26053;DHT22;13826;51.186;4.450;2023-06-14T12:33:26;31.50;1.00
26053;DHT22;13826;51.186;4.450;2023-06-14T12:35:54;31.20;1.00
26053;DHT22;13826;51.186;4.450;2023-06-14T12:38:20;31.00;1.00
26053;DHT22;13826;51.186;4.450;2023-06-14T12:40:46;30.70;1.00
26053;DHT22;13826;51.186;4.450;2023-06-14T12:43:12;30.40;1.00
26053;DHT22;13826;51.186;4.450;2023-06-14T12:45:37;30.70;1.00
26053;DHT22;13826;51.186;4.450;2023-06-14T12:48:03;30.60;1.00
26053;DHT22;13826;51.186;4.450;2023-06-14T12:50:29;30.80;1.00
26053;DHT22;13826;51.186;4.450;2023-06-14T12:52:55;30.90;1.00
26053;DHT22;13826;51.186;4.450;2023-06-14T12:55:21;30.60;1.00
26053;DHT22;13826;51.186;4.450;2023-06-14T12:57:46;30.30;1.00
26053;DHT22;13826;51.186;4.450;2023-06-14T13:00:15;30.60;1.00
26053;DHT22;13826;51.186;4.450;2023-06-14T13:02:40;30.60;1.00
26053;DHT22;13826;51.186;4.450;2023-06-14T13:05:06;30.40;1.00
26053;DHT22;13826;51.186;4.450;2023-06-14T13:07:32;30.30;1.00
26053;DHT22;13826;51.186;4.450;2023-06-14T13:09:58;30.00;1.00
26053;DHT22;13826;51.186;4.450;2023-06-14T13:12:23;30.00;1.00
26053;DHT22;13826;51.186;4.450;2023-06-14T13:14:49;30.10;1.00
26053;DHT22;13826;51.186;4.450;2023-06-14T13:17:14;30.00;1.00
26053;DHT22;13826;51.186;4.450;2023-06-14T13:19:40;29.70;1.00
26053;DHT22;13826;51.186;4.450;2023-06-14T13:22:07;29.60;1.00
26053;DHT22;13826;51.186;4.450;2023-06-14T13:24:34;29.70;1.00
26053;DHT22;13826;51.186;4.450;2023-06-14T13:26:59;29.70;1.00
26053;DHT22;13826;51.186;4.450;2023-06-14T13:29:25;29.90;1.00
26053;DHT22;13826;51.186;4.450;2023-06-14T13:31:52;29.90;1.00
26053;DHT22;13826;51.186;4.450;2023-06-14T13:34:18;30.00;1.00
26053;DHT22;13826;51.186;4.450;2023-06-14T13:36:43;29.90;1.00
26053;DHT22;13826;51.186;4.450;2023-06-14T13:39:09;29.80;1.00
26053;DHT22;13826;51.186;4.450;2023-06-14T13:41:35;29.80;1.00
26053;DHT22;13826;51.186;4.450;2023-06-14T13:44:01;29.90;1.00
26053;DHT22;13826;51.186;4.450;2023-06-14T13:46:29;30.00;1.00
26053;DHT22;13826;51.186;4.450;2023-06-14T13:48:55;29.90;1.00
26053;DHT22;13826;51.186;4.450;2023-06-14T13:51:20;29.70;1.00
26053;DHT22;13826;51.186;4.450;2023-06-14T13:53:47;29.70;1.00
26053;DHT22;13826;51.186;4.450;2023-06-14T13:56:12;29.70;1.00
26053;DHT22;13826;51.186;4.450;2023-06-14T13:58:38;29.80;1.00
26053;DHT22;13826;51.186;4.450;2023-06-14T14:01:04;29.60;1.00
26053;DHT22;13826;51.186;4.450;2023-06-14T14:03:30;29.30;1.00
26053;DHT22;13826;51.186;4.450;2023-06-14T14:05:56;29.20;1.00
26053;DHT22;13826;51.186;4.450;2023-06-14T14:08:21;29.20;1.00
26053;DHT22;13826;51.186;4.450;2023-06-14T14:10:47;29.20;1.00
26053;DHT22;13826;51.186;4.450;2023-06-14T14:13:13;28.90;1.00
26053;DHT22;13826;51.186;4.450;2023-06-14T14:15:38;28.50;1.00
26053;DHT22;13826;51.186;4.450;2023-06-14T14:18:04;28.70;1.00
26053;DHT22;13826;51.186;4.450;2023-06-14T14:20:33;28.90;1.00
26053;DHT22;13826;51.186;4.450;2023-06-14T14:22:58;28.90;1.00
26053;DHT22;13826;51.186;4.450;2023-06-14T14:25:24;29.20;1.00
26053;DHT22;13826;51.186;4.450;2023-06-14T14:27:50;29.10;1.00
26053;DHT22;13826;51.186;4.450;2023-06-14T14:30:15;29.10;1.00
26053;DHT22;13826;51.186;4.450;2023-06-14T14:32:42;29.20;1.00
26053;DHT22;13826;51.186;4.450;2023-06-14T14:35:09;29.10;1.00
26053;DHT22;13826;51.186;4.450;2023-06-14T14:37:36;29.00;1.00
26053;DHT22;13826;51.186;4.450;2023-06-14T14:40:01;28.90;1.00
26053;DHT22;13826;51.186;4.450;2023-06-14T14:42:28;29.00;1.00
26053;DHT22;13826;51.186;4.450;2023-06-14T14:44:54;28.80;1.00
26053;DHT22;13826;51.186;4.450;2023-06-14T14:47:20;28.90;1.00
26053;DHT22;13826;51.186;4.450;2023-06-14T14:49:45;29.20;1.00
26053;DHT22;13826;51.186;4.450;2023-06-14T14:52:11;29.10;1.00
26053;DHT22;13826;51.186;4.450;2023-06-14T14:54:38;29.00;1.00
26053;DHT22;13826;51.186;4.450;2023-06-14T14:57:04;28.70;1.00
26053;DHT22;13826;51.186;4.450;2023-06-14T14:59:30;28.70;1.00
26053;DHT22;13826;51.186;4.450;2023-06-14T15:01:56;28.70;1.00
26053;DHT22;13826;51.186;4.450;2023-06-14T15:04:21;28.50;1.00
26053;DHT22;13826;51.186;4.450;2023-06-14T15:06:47;28.40;1.00
26053;DHT22;13826;51.186;4.450;2023-06-14T15:09:12;28.50;1.00
26053;DHT22;13826;51.186;4.450;2023-06-14T15:11:38;28.30;1.00
26053;DHT22;13826;51.186;4.450;2023-06-14T15:14:03;28.30;1.00
26053;DHT22;13826;51.186;4.450;2023-06-14T15:16:29;28.40;1.00
26053;DHT22;13826;51.186;4.450;2023-06-14T15:18:54;28.60;1.00
26053;DHT22;13826;51.186;4.450;2023-06-14T15:21:20;28.50;1.00
26053;DHT22;13826;51.186;4.450;2023-06-14T15:23:47;28.30;1.00
26053;DHT22;13826;51.186;4.450;2023-06-14T15:26:13;28.20;1.00
26053;DHT22;13826;51.186;4.450;2023-06-14T15:28:39;28.40;1.00
26053;DHT22;13826;51.186;4.450;2023-06-14T15:31:04;28.60;1.00
26053;DHT22;13826;51.186;4.450;2023-06-14T15:33:30;28.70;1.00
26053;DHT22;13826;51.186;4.450;2023-06-14T15:35:56;28.40;1.00
26053;DHT22;13826;51.186;4.450;2023-06-14T15:38:22;28.50;1.00
26053;DHT22;13826;51.186;4.450;2023-06-14T15:40:48;28.70;1.00
26053;DHT22;13826;51.186;4.450;2023-06-14T15:43:14;28.60;1.00
26053;DHT22;13826;51.186;4.450;2023-06-14T15:45:39;28.70;1.00
26053;DHT22;13826;51.186;4.450;2023-06-14T15:48:09;28.50;1.00
26053;DHT22;13826;51.186;4.450;2023-06-14T15:50:34;28.40;1.00